sensor_id;sensor_type;location;lat;lon;timestamp;P1;durP1;ratioP1;P2;durP2;ratioP2
13234;SDS011;6683;48.506;9.050;2023-12-20T00:01:37;1.37;;;1.10;;
13234;SDS011;6683;48.506;9.050;2023-12-20T00:04:41;1.10;;;1.00;;
13234;SDS011;6683;48.506;9.050;2023-12-20T00:07:43;1.83;;;0.90;;
13234;SDS011;6683;48.506;9.050;2023-12-20T00:10:45;0.87;;;0.80;;
13234;SDS011;6683;48.506;9.050;2023-12-20T00:13:47;1.37;;;0.90;;
13234;SDS011;6683;48.506;9.050;2023-12-20T00:16:49;0.87;;;0.83;;
13234;SDS011;6683;48.506;9.050;2023-12-20T00:19:52;1.10;;;0.80;;
13234;SDS011;6683;48.506;9.050;2023-12-20T00:22:55;1.27;;;0.83;;
13234;SDS011;6683;48.506;9.050;2023-12-20T00:25:58;1.23;;;1.13;;
13234;SDS011;6683;48.506;9.050;2023-12-20T00:29:00;1.00;;;0.87;;
13234;SDS011;6683;48.506;9.050;2023-12-20T00:32:02;0.80;;;0.80;;
13234;SDS011;6683;48.506;9.050;2023-12-20T00:35:07;1.40;;;1.10;;
13234;SDS011;6683;48.506;9.050;2023-12-20T00:38:09;1.30;;;1.10;;
13234;SDS011;6683;48.506;9.050;2023-12-20T00:41:11;1.10;;;1.00;;
13234;SDS011;6683;48.506;9.050;2023-12-20T00:44:13;1.00;;;0.90;;
13234;SDS011;6683;48.506;9.050;2023-12-20T00:47:15;1.20;;;0.97;;
13234;SDS011;6683;48.506;9.050;2023-12-20T00:50:19;1.87;;;1.30;;
13234;SDS011;6683;48.506;9.050;2023-12-20T00:53:21;2.30;;;1.37;;
13234;SDS011;6683;48.506;9.050;2023-12-20T00:56:23;1.93;;;1.30;;
13234;SDS011;6683;48.506;9.050;2023-12-20T00:59:25;1.80;;;1.27;;
13234;SDS011;6683;48.506;9.050;2023-12-20T01:02:27;1.30;;;1.10;;
13234;SDS011;6683;48.506;9.050;2023-12-20T01:05:31;1.87;;;1.30;;
13234;SDS011;6683;48.506;9.050;2023-12-20T01:08:33;1.57;;;1.23;;
13234;SDS011;6683;48.506;9.050;2023-12-20T01:11:35;1.20;;;1.10;;
13234;SDS011;6683;48.506;9.050;2023-12-20T01:14:37;1.20;;;1.10;;
13234;SDS011;6683;48.506;9.050;2023-12-20T01:17:40;1.20;;;1.00;;
13234;SDS011;6683;48.506;9.050;2023-12-20T01:20:43;1.27;;;1.00;;
13234;SDS011;6683;48.506;9.050;2023-12-20T01:23:45;1.67;;;0.97;;
13234;SDS011;6683;48.506;9.050;2023-12-20T01:26:47;2.27;;;1.00;;
13234;SDS011;6683;48.506;9.050;2023-12-20T01:29:49;1.00;;;0.90;;
13234;SDS011;6683;48.506;9.050;2023-12-20T01:32:51;1.13;;;0.80;;
13234;SDS011;6683;48.506;9.050;2023-12-20T01:35:55;0.93;;;0.87;;
13234;SDS011;6683;48.506;9.050;2023-12-20T01:38:57;1.87;;;0.87;;
13234;SDS011;6683;48.506;9.050;2023-12-20T01:41:59;1.30;;;0.90;;
13234;SDS011;6683;48.506;9.050;2023-12-20T01:45:02;1.00;;;0.90;;
13234;SDS011;6683;48.506;9.050;2023-12-20T01:48:05;0.90;;;0.70;;
13234;SDS011;6683;48.506;9.050;2023-12-20T01:51:10;1.00;;;0.90;;
13234;SDS011;6683;48.506;9.050;2023-12-20T01:54:13;1.03;;;0.83;;
13234;SDS011;6683;48.506;9.050;2023-12-20T01:57:15;1.17;;;0.90;;
13234;SDS011;6683;48.506;9.050;2023-12-20T02:00:17;1.07;;;0.97;;
13234;SDS011;6683;48.506;9.050;2023-12-20T02:03:23;0.87;;;0.80;;
13234;SDS011;6683;48.506;9.050;2023-12-20T02:06:27;1.80;;;1.13;;
13234;SDS011;6683;48.506;9.050;2023-12-20T02:09:31;1.80;;;1.40;;
13234;SDS011;6683;48.506;9.050;2023-12-20T02:12:34;1.77;;;1.20;;
13234;SDS011;6683;48.506;9.050;2023-12-20T02:15:36;0.97;;;0.87;;
13234;SDS011;6683;48.506;9.050;2023-12-20T02:18:39;0.70;;;0.70;;
13234;SDS011;6683;48.506;9.050;2023-12-20T02:21:42;1.17;;;0.83;;
13234;SDS011;6683;48.506;9.050;2023-12-20T02:24:44;0.80;;;0.80;;
13234;SDS011;6683;48.506;9.050;2023-12-20T02:27:47;0.90;;;0.60;;
13234;SDS011;6683;48.506;9.050;2023-12-20T02:30:49;0.87;;;0.70;;
13234;SDS011;6683;48.506;9.050;2023-12-20T02:33:51;1.17;;;0.97;;
13234;SDS011;6683;48.506;9.050;2023-12-20T02:36:55;0.70;;;0.70;;
13234;SDS011;6683;48.506;9.050;2023-12-20T02:39:58;0.80;;;0.80;;
13234;SDS011;6683;48.506;9.050;2023-12-20T02:43:00;0.80;;;0.60;;
13234;SDS011;6683;48.506;9.050;2023-12-20T02:46:03;0.60;;;0.60;;
13234;SDS011;6683;48.506;9.050;2023-12-20T02:49:05;0.50;;;0.50;;
13234;SDS011;6683;48.506;9.050;2023-12-20T02:52:09;0.87;;;0.50;;
13234;SDS011;6683;48.506;9.050;2023-12-20T02:55:11;0.53;;;0.50;;
13234;SDS011;6683;48.506;9.050;2023-12-20T02:58:13;0.77;;;0.60;;
13234;SDS011;6683;48.506;9.050;2023-12-20T03:01:15;1.00;;;0.80;;
13234;SDS011;6683;48.506;9.050;2023-12-20T03:04:17;0.60;;;0.60;;
13234;SDS011;6683;48.506;9.050;2023-12-20T03:07:21;0.50;;;0.50;;
13234;SDS011;6683;48.506;9.050;2023-12-20T03:10:23;0.57;;;0.50;;
13234;SDS011;6683;48.506;9.050;2023-12-20T03:13:25;0.57;;;0.40;;
13234;SDS011;6683;48.506;9.050;2023-12-20T03:16:27;0.60;;;0.40;;
13234;SDS011;6683;48.506;9.050;2023-12-20T03:19:29;0.63;;;0.50;;
13234;SDS011;6683;48.506;9.050;2023-12-20T03:22:33;0.43;;;0.40;;
13234;SDS011;6683;48.506;9.050;2023-12-20T03:25:35;0.67;;;0.67;;
13234;SDS011;6683;48.506;9.050;2023-12-20T03:28:37;1.03;;;0.50;;
13234;SDS011;6683;48.506;9.050;2023-12-20T03:31:39;0.60;;;0.60;;
13234;SDS011;6683;48.506;9.050;2023-12-20T03:34:41;0.60;;;0.40;;
13234;SDS011;6683;48.506;9.050;2023-12-20T03:37:45;1.20;;;0.57;;
13234;SDS011;6683;48.506;9.050;2023-12-20T03:40:47;1.37;;;0.90;;
13234;SDS011;6683;48.506;9.050;2023-12-20T03:43:49;1.47;;;0.97;;
13234;SDS011;6683;48.506;9.050;2023-12-20T03:46:51;1.43;;;0.90;;
13234;SDS011;6683;48.506;9.050;2023-12-20T03:49:53;1.43;;;0.70;;
13234;SDS011;6683;48.506;9.050;2023-12-20T03:52:57;0.70;;;0.60;;
13234;SDS011;6683;48.506;9.050;2023-12-20T03:55:59;0.70;;;0.60;;
13234;SDS011;6683;48.506;9.050;2023-12-20T03:59:01;0.77;;;0.70;;
13234;SDS011;6683;48.506;9.050;2023-12-20T04:02:03;2.13;;;0.70;;
13234;SDS011;6683;48.506;9.050;2023-12-20T04:05:06;0.50;;;0.50;;
13234;SDS011;6683;48.506;9.050;2023-12-20T04:08:11;0.80;;;0.60;;
13234;SDS011;6683;48.506;9.050;2023-12-20T04:11:13;0.70;;;0.70;;
13234;SDS011;6683;48.506;9.050;2023-12-20T04:14:15;1.23;;;0.53;;
13234;SDS011;6683;48.506;9.050;2023-12-20T04:17:17;1.07;;;0.50;;
13234;SDS011;6683;48.506;9.050;2023-12-20T04:20:19;0.50;;;0.40;;
13234;SDS011;6683;48.506;9.050;2023-12-20T04:23:23;0.57;;;0.53;;
13234;SDS011;6683;48.506;9.050;2023-12-20T04:26:25;0.87;;;0.60;;
13234;SDS011;6683;48.506;9.050;2023-12-20T04:29:27;0.70;;;0.47;;
13234;SDS011;6683;48.506;9.050;2023-12-20T04:32:29;0.80;;;0.50;;
13234;SDS011;6683;48.506;9.050;2023-12-20T04:35:31;0.50;;;0.40;;
13234;SDS011;6683;48.506;9.050;2023-12-20T04:38:35;0.23;;;0.20;;
13234;SDS011;6683;48.506;9.050;2023-12-20T04:41:37;0.30;;;0.30;;
13234;SDS011;6683;48.506;9.050;2023-12-20T04:44:39;0.60;;;0.30;;
13234;SDS011;6683;48.506;9.050;2023-12-20T04:47:41;0.20;;;0.20;;
13234;SDS011;6683;48.506;9.050;2023-12-20T04:50:44;0.53;;;0.30;;
13234;SDS011;6683;48.506;9.050;2023-12-20T04:53:47;1.03;;;0.30;;
13234;SDS011;6683;48.506;9.050;2023-12-20T04:56:49;0.30;;;0.20;;
13234;SDS011;6683;48.506;9.050;2023-12-20T04:59:51;0.43;;;0.23;;
13234;SDS011;6683;48.506;9.050;2023-12-20T05:02:53;0.60;;;0.30;;
13234;SDS011;6683;48.506;9.050;2023-12-20T05:05:55;0.60;;;0.20;;
13234;SDS011;6683;48.506;9.050;2023-12-20T05:08:59;0.27;;;0.23;;
13234;SDS011;6683;48.506;9.050;2023-12-20T05:12:01;0.30;;;0.20;;
13234;SDS011;6683;48.506;9.050;2023-12-20T05:15:05;0.20;;;0.10;;
13234;SDS011;6683;48.506;9.050;2023-12-20T05:18:08;0.23;;;0.20;;
13234;SDS011;6683;48.506;9.050;2023-12-20T05:21:10;0.60;;;0.20;;
13234;SDS011;6683;48.506;9.050;2023-12-20T05:24:14;0.30;;;0.20;;
13234;SDS011;6683;48.506;9.050;2023-12-20T05:27:16;0.40;;;0.20;;
13234;SDS011;6683;48.506;9.050;2023-12-20T05:30:18;0.40;;;0.30;;
13234;SDS011;6683;48.506;9.050;2023-12-20T05:33:20;0.33;;;0.30;;
13234;SDS011;6683;48.506;9.050;2023-12-20T05:36:22;0.30;;;0.20;;
13234;SDS011;6683;48.506;9.050;2023-12-20T05:39:25;1.17;;;0.20;;
13234;SDS011;6683;48.506;9.050;2023-12-20T05:42:27;0.60;;;0.20;;
13234;SDS011;6683;48.506;9.050;2023-12-20T05:45:30;0.40;;;0.30;;
13234;SDS011;6683;48.506;9.050;2023-12-20T05:48:32;0.30;;;0.27;;
13234;SDS011;6683;48.506;9.050;2023-12-20T05:51:34;0.33;;;0.20;;
13234;SDS011;6683;48.506;9.050;2023-12-20T05:54:37;1.73;;;0.60;;
13234;SDS011;6683;48.506;9.050;2023-12-20T05:57:39;0.57;;;0.40;;
13234;SDS011;6683;48.506;9.050;2023-12-20T06:00:43;0.60;;;0.40;;
13234;SDS011;6683;48.506;9.050;2023-12-20T06:03:45;0.57;;;0.50;;
13234;SDS011;6683;48.506;9.050;2023-12-20T06:06:47;1.23;;;0.40;;
13234;SDS011;6683;48.506;9.050;2023-12-20T06:09:51;0.70;;;0.30;;
13234;SDS011;6683;48.506;9.050;2023-12-20T06:12:53;0.50;;;0.40;;
13234;SDS011;6683;48.506;9.050;2023-12-20T06:15:56;0.50;;;0.40;;
13234;SDS011;6683;48.506;9.050;2023-12-20T06:18:58;0.70;;;0.40;;
13234;SDS011;6683;48.506;9.050;2023-12-20T06:22:00;0.40;;;0.30;;
13234;SDS011;6683;48.506;9.050;2023-12-20T06:25:05;0.67;;;0.40;;
13234;SDS011;6683;48.506;9.050;2023-12-20T06:28:08;1.07;;;0.50;;
13234;SDS011;6683;48.506;9.050;2023-12-20T06:31:10;1.43;;;0.40;;
13234;SDS011;6683;48.506;9.050;2023-12-20T06:34:12;0.60;;;0.50;;
13234;SDS011;6683;48.506;9.050;2023-12-20T06:37:14;1.03;;;0.73;;
13234;SDS011;6683;48.506;9.050;2023-12-20T06:40:18;0.77;;;0.50;;
13234;SDS011;6683;48.506;9.050;2023-12-20T06:43:20;0.73;;;0.50;;
13234;SDS011;6683;48.506;9.050;2023-12-20T06:46:22;0.70;;;0.67;;
13234;SDS011;6683;48.506;9.050;2023-12-20T06:49:25;0.87;;;0.40;;
13234;SDS011;6683;48.506;9.050;2023-12-20T06:52:27;0.83;;;0.50;;
13234;SDS011;6683;48.506;9.050;2023-12-20T06:55:30;1.00;;;0.87;;
13234;SDS011;6683;48.506;9.050;2023-12-20T06:58:32;0.70;;;0.50;;
13234;SDS011;6683;48.506;9.050;2023-12-20T07:01:35;1.80;;;0.57;;
13234;SDS011;6683;48.506;9.050;2023-12-20T07:04:38;0.60;;;0.50;;
13234;SDS011;6683;48.506;9.050;2023-12-20T07:07:41;0.40;;;0.30;;
13234;SDS011;6683;48.506;9.050;2023-12-20T07:10:44;0.50;;;0.43;;
13234;SDS011;6683;48.506;9.050;2023-12-20T07:13:46;0.70;;;0.50;;
13234;SDS011;6683;48.506;9.050;2023-12-20T07:16:49;0.73;;;0.70;;
13234;SDS011;6683;48.506;9.050;2023-12-20T07:19:51;1.07;;;0.80;;
13234;SDS011;6683;48.506;9.050;2023-12-20T07:22:53;1.00;;;0.80;;
13234;SDS011;6683;48.506;9.050;2023-12-20T07:25:57;0.97;;;0.80;;
13234;SDS011;6683;48.506;9.050;2023-12-20T07:28:59;3.30;;;0.90;;
13234;SDS011;6683;48.506;9.050;2023-12-20T07:32:01;1.30;;;0.77;;
13234;SDS011;6683;48.506;9.050;2023-12-20T07:35:04;1.43;;;0.80;;
13234;SDS011;6683;48.506;9.050;2023-12-20T07:38:07;1.13;;;0.70;;
13234;SDS011;6683;48.506;9.050;2023-12-20T07:41:10;1.30;;;0.97;;
13234;SDS011;6683;48.506;9.050;2023-12-20T07:44:12;1.53;;;0.73;;
13234;SDS011;6683;48.506;9.050;2023-12-20T07:47:15;1.00;;;0.90;;
13234;SDS011;6683;48.506;9.050;2023-12-20T07:50:21;1.83;;;0.60;;
13234;SDS011;6683;48.506;9.050;2023-12-20T07:53:23;1.80;;;0.70;;
13234;SDS011;6683;48.506;9.050;2023-12-20T07:56:27;0.60;;;0.60;;
13234;SDS011;6683;48.506;9.050;2023-12-20T07:59:29;1.20;;;0.60;;
13234;SDS011;6683;48.506;9.050;2023-12-20T08:02:31;1.40;;;0.70;;
13234;SDS011;6683;48.506;9.050;2023-12-20T08:05:33;1.00;;;0.77;;
13234;SDS011;6683;48.506;9.050;2023-12-20T08:08:36;0.97;;;0.53;;
13234;SDS011;6683;48.506;9.050;2023-12-20T08:11:39;0.60;;;0.60;;
13234;SDS011;6683;48.506;9.050;2023-12-20T08:14:45;1.07;;;0.70;;
13234;SDS011;6683;48.506;9.050;2023-12-20T08:17:47;0.70;;;0.60;;
13234;SDS011;6683;48.506;9.050;2023-12-20T08:20:50;1.17;;;1.00;;
13234;SDS011;6683;48.506;9.050;2023-12-20T08:23:54;2.23;;;2.03;;
13234;SDS011;6683;48.506;9.050;2023-12-20T08:26:57;2.20;;;2.00;;
13234;SDS011;6683;48.506;9.050;2023-12-20T08:29:59;2.10;;;1.77;;
13234;SDS011;6683;48.506;9.050;2023-12-20T08:33:02;1.80;;;1.70;;
13234;SDS011;6683;48.506;9.050;2023-12-20T08:36:05;1.60;;;1.50;;
13234;SDS011;6683;48.506;9.050;2023-12-20T08:39:07;1.03;;;0.93;;
13234;SDS011;6683;48.506;9.050;2023-12-20T08:42:11;0.77;;;0.77;;
13234;SDS011;6683;48.506;9.050;2023-12-20T08:45:13;1.17;;;0.60;;
13234;SDS011;6683;48.506;9.050;2023-12-20T08:48:15;0.97;;;0.80;;
13234;SDS011;6683;48.506;9.050;2023-12-20T08:51:17;1.60;;;0.93;;
13234;SDS011;6683;48.506;9.050;2023-12-20T08:54:19;0.93;;;0.60;;
13234;SDS011;6683;48.506;9.050;2023-12-20T08:57:23;0.53;;;0.53;;
13234;SDS011;6683;48.506;9.050;2023-12-20T09:00:25;0.40;;;0.40;;
13234;SDS011;6683;48.506;9.050;2023-12-20T09:03:27;1.00;;;0.67;;
13234;SDS011;6683;48.506;9.050;2023-12-20T09:06:29;0.73;;;0.30;;
13234;SDS011;6683;48.506;9.050;2023-12-20T09:09:31;0.60;;;0.40;;
13234;SDS011;6683;48.506;9.050;2023-12-20T09:12:35;1.23;;;0.60;;
13234;SDS011;6683;48.506;9.050;2023-12-20T09:15:40;0.50;;;0.30;;
13234;SDS011;6683;48.506;9.050;2023-12-20T09:18:42;0.40;;;0.40;;
13234;SDS011;6683;48.506;9.050;2023-12-20T09:21:44;0.40;;;0.40;;
13234;SDS011;6683;48.506;9.050;2023-12-20T09:24:46;0.83;;;0.73;;
13234;SDS011;6683;48.506;9.050;2023-12-20T09:27:50;1.47;;;0.60;;
13234;SDS011;6683;48.506;9.050;2023-12-20T09:30:52;1.07;;;0.53;;
13234;SDS011;6683;48.506;9.050;2023-12-20T09:33:54;0.63;;;0.60;;
13234;SDS011;6683;48.506;9.050;2023-12-20T09:36:56;0.83;;;0.77;;
13234;SDS011;6683;48.506;9.050;2023-12-20T09:39:58;1.00;;;0.70;;
13234;SDS011;6683;48.506;9.050;2023-12-20T09:43:03;1.00;;;0.67;;
13234;SDS011;6683;48.506;9.050;2023-12-20T09:46:10;0.90;;;0.50;;
13234;SDS011;6683;48.506;9.050;2023-12-20T09:49:17;1.53;;;0.83;;
13234;SDS011;6683;48.506;9.050;2023-12-20T09:52:20;1.13;;;0.70;;
13234;SDS011;6683;48.506;9.050;2023-12-20T09:55:25;1.13;;;0.70;;
13234;SDS011;6683;48.506;9.050;2023-12-20T09:58:30;0.80;;;0.70;;
13234;SDS011;6683;48.506;9.050;2023-12-20T10:01:33;0.90;;;0.60;;
13234;SDS011;6683;48.506;9.050;2023-12-20T10:04:36;0.97;;;0.60;;
13234;SDS011;6683;48.506;9.050;2023-12-20T10:07:38;1.17;;;0.60;;
13234;SDS011;6683;48.506;9.050;2023-12-20T10:10:40;0.77;;;0.70;;
13234;SDS011;6683;48.506;9.050;2023-12-20T10:13:44;1.40;;;1.17;;
13234;SDS011;6683;48.506;9.050;2023-12-20T10:16:48;1.60;;;0.90;;
13234;SDS011;6683;48.506;9.050;2023-12-20T10:19:50;1.77;;;0.70;;
13234;SDS011;6683;48.506;9.050;2023-12-20T10:22:53;1.70;;;1.00;;
13234;SDS011;6683;48.506;9.050;2023-12-20T10:25:56;1.50;;;1.00;;
13234;SDS011;6683;48.506;9.050;2023-12-20T10:29:00;1.20;;;1.10;;
13234;SDS011;6683;48.506;9.050;2023-12-20T10:32:21;1.30;;;0.83;;
13234;SDS011;6683;48.506;9.050;2023-12-20T10:35:25;1.47;;;0.80;;
13234;SDS011;6683;48.506;9.050;2023-12-20T10:38:27;1.20;;;0.70;;
13234;SDS011;6683;48.506;9.050;2023-12-20T10:41:30;1.07;;;0.70;;
13234;SDS011;6683;48.506;9.050;2023-12-20T10:44:36;1.67;;;1.07;;
13234;SDS011;6683;48.506;9.050;2023-12-20T10:47:39;0.90;;;0.73;;
13234;SDS011;6683;48.506;9.050;2023-12-20T10:50:43;0.87;;;0.57;;
13234;SDS011;6683;48.506;9.050;2023-12-20T10:53:47;0.93;;;0.87;;
13234;SDS011;6683;48.506;9.050;2023-12-20T10:56:49;1.33;;;1.10;;
13234;SDS011;6683;48.506;9.050;2023-12-20T11:03:43;1.10;;;0.67;;
13234;SDS011;6683;48.506;9.050;2023-12-20T11:06:49;1.00;;;0.60;;
13234;SDS011;6683;48.506;9.050;2023-12-20T11:09:59;1.20;;;0.90;;
13234;SDS011;6683;48.506;9.050;2023-12-20T11:13:20;1.87;;;1.07;;
13234;SDS011;6683;48.506;9.050;2023-12-20T11:16:29;1.77;;;0.70;;
13234;SDS011;6683;48.506;9.050;2023-12-20T11:19:32;2.47;;;0.77;;
13234;SDS011;6683;48.506;9.050;2023-12-20T11:22:39;1.67;;;0.80;;
13234;SDS011;6683;48.506;9.050;2023-12-20T11:25:55;1.63;;;0.77;;
13234;SDS011;6683;48.506;9.050;2023-12-20T11:32:33;1.23;;;0.93;;
13234;SDS011;6683;48.506;9.050;2023-12-20T11:35:36;1.77;;;0.90;;
13234;SDS011;6683;48.506;9.050;2023-12-20T11:38:41;1.97;;;1.00;;
13234;SDS011;6683;48.506;9.050;2023-12-20T11:41:58;0.60;;;0.60;;
13234;SDS011;6683;48.506;9.050;2023-12-20T11:45:08;1.50;;;0.67;;
13234;SDS011;6683;48.506;9.050;2023-12-20T11:48:12;1.43;;;0.70;;
13234;SDS011;6683;48.506;9.050;2023-12-20T11:51:15;1.93;;;0.80;;
13234;SDS011;6683;48.506;9.050;2023-12-20T11:54:17;2.13;;;0.80;;
13234;SDS011;6683;48.506;9.050;2023-12-20T11:57:20;2.13;;;0.80;;
13234;SDS011;6683;48.506;9.050;2023-12-20T12:00:22;1.33;;;0.63;;
13234;SDS011;6683;48.506;9.050;2023-12-20T12:03:25;2.23;;;0.83;;
13234;SDS011;6683;48.506;9.050;2023-12-20T12:06:27;0.77;;;0.77;;
13234;SDS011;6683;48.506;9.050;2023-12-20T12:09:29;2.53;;;0.80;;
13234;SDS011;6683;48.506;9.050;2023-12-20T12:12:31;1.43;;;0.70;;
13234;SDS011;6683;48.506;9.050;2023-12-20T12:15:34;1.43;;;0.90;;
13234;SDS011;6683;48.506;9.050;2023-12-20T12:18:39;0.60;;;0.60;;
13234;SDS011;6683;48.506;9.050;2023-12-20T12:21:42;2.70;;;0.90;;
13234;SDS011;6683;48.506;9.050;2023-12-20T12:24:44;1.43;;;1.20;;
13234;SDS011;6683;48.506;9.050;2023-12-20T12:27:48;1.30;;;0.70;;
13234;SDS011;6683;48.506;9.050;2023-12-20T12:30:58;2.17;;;0.83;;
13234;SDS011;6683;48.506;9.050;2023-12-20T12:34:02;1.97;;;1.00;;
13234;SDS011;6683;48.506;9.050;2023-12-20T12:37:04;2.33;;;0.93;;
13234;SDS011;6683;48.506;9.050;2023-12-20T12:40:07;1.73;;;1.00;;
13234;SDS011;6683;48.506;9.050;2023-12-20T12:43:11;2.43;;;0.90;;
13234;SDS011;6683;48.506;9.050;2023-12-20T12:46:13;2.10;;;0.80;;
13234;SDS011;6683;48.506;9.050;2023-12-20T12:49:17;6.27;;;3.13;;
13234;SDS011;6683;48.506;9.050;2023-12-20T12:52:20;4.00;;;2.67;;
13234;SDS011;6683;48.506;9.050;2023-12-20T12:55:22;2.73;;;1.70;;
13234;SDS011;6683;48.506;9.050;2023-12-20T12:58:24;2.43;;;1.40;;
13234;SDS011;6683;48.506;9.050;2023-12-20T13:01:26;2.83;;;1.20;;
13234;SDS011;6683;48.506;9.050;2023-12-20T13:04:30;2.13;;;1.50;;
13234;SDS011;6683;48.506;9.050;2023-12-20T13:07:32;5.00;;;1.20;;
13234;SDS011;6683;48.506;9.050;2023-12-20T13:10:34;3.60;;;1.33;;
13234;SDS011;6683;48.506;9.050;2023-12-20T13:13:36;4.97;;;1.20;;
13234;SDS011;6683;48.506;9.050;2023-12-20T13:16:38;1.60;;;0.77;;
13234;SDS011;6683;48.506;9.050;2023-12-20T13:19:41;1.50;;;0.70;;
13234;SDS011;6683;48.506;9.050;2023-12-20T13:22:44;7.73;;;1.33;;
13234;SDS011;6683;48.506;9.050;2023-12-20T13:25:47;1.63;;;0.90;;
13234;SDS011;6683;48.506;9.050;2023-12-20T13:28:49;2.60;;;0.90;;
13234;SDS011;6683;48.506;9.050;2023-12-20T13:31:51;1.73;;;0.90;;
13234;SDS011;6683;48.506;9.050;2023-12-20T13:34:54;8.43;;;1.20;;
13234;SDS011;6683;48.506;9.050;2023-12-20T13:37:56;5.00;;;1.03;;
13234;SDS011;6683;48.506;9.050;2023-12-20T13:40:58;1.40;;;0.80;;
13234;SDS011;6683;48.506;9.050;2023-12-20T13:44:00;3.80;;;0.90;;
13234;SDS011;6683;48.506;9.050;2023-12-20T13:47:03;2.43;;;0.87;;
13234;SDS011;6683;48.506;9.050;2023-12-20T13:50:08;3.07;;;1.00;;
13234;SDS011;6683;48.506;9.050;2023-12-20T13:53:11;2.83;;;0.90;;
13234;SDS011;6683;48.506;9.050;2023-12-20T13:56:14;2.63;;;1.00;;
13234;SDS011;6683;48.506;9.050;2023-12-20T13:59:16;2.83;;;0.97;;
13234;SDS011;6683;48.506;9.050;2023-12-20T14:02:18;1.17;;;0.73;;
13234;SDS011;6683;48.506;9.050;2023-12-20T14:05:22;2.73;;;0.70;;
13234;SDS011;6683;48.506;9.050;2023-12-20T14:08:24;2.57;;;0.83;;
13234;SDS011;6683;48.506;9.050;2023-12-20T14:11:27;1.43;;;0.73;;
13234;SDS011;6683;48.506;9.050;2023-12-20T14:14:29;2.13;;;0.83;;
13234;SDS011;6683;48.506;9.050;2023-12-20T14:17:31;3.10;;;1.10;;
13234;SDS011;6683;48.506;9.050;2023-12-20T14:20:34;1.43;;;0.73;;
13234;SDS011;6683;48.506;9.050;2023-12-20T14:23:39;1.90;;;0.77;;
13234;SDS011;6683;48.506;9.050;2023-12-20T14:26:41;2.03;;;1.20;;
13234;SDS011;6683;48.506;9.050;2023-12-20T14:29:43;2.37;;;1.27;;
13234;SDS011;6683;48.506;9.050;2023-12-20T14:32:45;4.20;;;0.90;;
13234;SDS011;6683;48.506;9.050;2023-12-20T14:35:49;1.57;;;0.90;;
13234;SDS011;6683;48.506;9.050;2023-12-20T14:38:52;3.30;;;0.90;;
13234;SDS011;6683;48.506;9.050;2023-12-20T14:41:54;1.20;;;0.70;;
13234;SDS011;6683;48.506;9.050;2023-12-20T14:44:56;1.33;;;0.70;;
13234;SDS011;6683;48.506;9.050;2023-12-20T14:47:58;3.53;;;0.80;;
13234;SDS011;6683;48.506;9.050;2023-12-20T14:51:02;1.40;;;0.80;;
13234;SDS011;6683;48.506;9.050;2023-12-20T14:54:05;2.60;;;0.70;;
13234;SDS011;6683;48.506;9.050;2023-12-20T14:57:09;1.23;;;0.77;;
13234;SDS011;6683;48.506;9.050;2023-12-20T15:00:11;1.90;;;0.80;;
13234;SDS011;6683;48.506;9.050;2023-12-20T15:03:16;2.63;;;0.90;;
13234;SDS011;6683;48.506;9.050;2023-12-20T15:06:20;2.57;;;1.30;;
13234;SDS011;6683;48.506;9.050;2023-12-20T15:09:22;1.50;;;1.00;;
13234;SDS011;6683;48.506;9.050;2023-12-20T15:12:25;3.20;;;1.20;;
13234;SDS011;6683;48.506;9.050;2023-12-20T15:15:27;2.53;;;0.93;;
13234;SDS011;6683;48.506;9.050;2023-12-20T15:18:30;1.57;;;0.70;;
13234;SDS011;6683;48.506;9.050;2023-12-20T15:21:33;0.87;;;0.77;;
13234;SDS011;6683;48.506;9.050;2023-12-20T15:24:40;1.87;;;1.03;;
13234;SDS011;6683;48.506;9.050;2023-12-20T15:27:44;1.37;;;0.80;;
13234;SDS011;6683;48.506;9.050;2023-12-20T15:30:46;2.77;;;0.90;;
13234;SDS011;6683;48.506;9.050;2023-12-20T15:33:48;2.67;;;1.20;;
13234;SDS011;6683;48.506;9.050;2023-12-20T15:36:52;2.93;;;1.00;;
13234;SDS011;6683;48.506;9.050;2023-12-20T15:39:54;1.20;;;0.93;;
13234;SDS011;6683;48.506;9.050;2023-12-20T15:42:56;3.73;;;1.20;;
13234;SDS011;6683;48.506;9.050;2023-12-20T15:45:59;1.43;;;1.00;;
13234;SDS011;6683;48.506;9.050;2023-12-20T15:49:01;2.70;;;1.00;;
13234;SDS011;6683;48.506;9.050;2023-12-20T15:52:06;1.77;;;0.73;;
13234;SDS011;6683;48.506;9.050;2023-12-20T15:55:08;2.03;;;0.90;;
13234;SDS011;6683;48.506;9.050;2023-12-20T15:58:10;2.20;;;0.90;;
13234;SDS011;6683;48.506;9.050;2023-12-20T16:01:12;2.17;;;1.00;;
13234;SDS011;6683;48.506;9.050;2023-12-20T16:04:14;1.20;;;0.80;;
13234;SDS011;6683;48.506;9.050;2023-12-20T16:07:17;5.60;;;1.40;;
13234;SDS011;6683;48.506;9.050;2023-12-20T16:10:19;1.93;;;1.20;;
13234;SDS011;6683;48.506;9.050;2023-12-20T16:13:21;1.57;;;0.80;;
13234;SDS011;6683;48.506;9.050;2023-12-20T16:16:23;1.57;;;0.83;;
13234;SDS011;6683;48.506;9.050;2023-12-20T16:19:25;2.27;;;1.20;;
13234;SDS011;6683;48.506;9.050;2023-12-20T16:22:29;1.97;;;1.10;;
13234;SDS011;6683;48.506;9.050;2023-12-20T16:25:32;1.33;;;0.70;;
13234;SDS011;6683;48.506;9.050;2023-12-20T16:28:37;1.67;;;0.97;;
13234;SDS011;6683;48.506;9.050;2023-12-20T16:31:39;1.40;;;0.70;;
13234;SDS011;6683;48.506;9.050;2023-12-20T16:34:41;2.50;;;1.10;;
13234;SDS011;6683;48.506;9.050;2023-12-20T16:37:46;2.00;;;0.80;;
13234;SDS011;6683;48.506;9.050;2023-12-20T16:40:48;1.87;;;1.00;;
13234;SDS011;6683;48.506;9.050;2023-12-20T16:43:50;2.10;;;0.80;;
13234;SDS011;6683;48.506;9.050;2023-12-20T16:46:52;2.33;;;1.00;;
13234;SDS011;6683;48.506;9.050;2023-12-20T16:49:55;2.73;;;1.50;;
13234;SDS011;6683;48.506;9.050;2023-12-20T16:52:59;2.77;;;1.27;;
13234;SDS011;6683;48.506;9.050;2023-12-20T16:56:02;3.00;;;1.73;;
13234;SDS011;6683;48.506;9.050;2023-12-20T16:59:04;3.60;;;1.50;;
13234;SDS011;6683;48.506;9.050;2023-12-20T17:02:06;4.40;;;1.63;;
13234;SDS011;6683;48.506;9.050;2023-12-20T17:05:08;7.23;;;3.20;;
13234;SDS011;6683;48.506;9.050;2023-12-20T17:08:12;3.27;;;2.27;;
13234;SDS011;6683;48.506;9.050;2023-12-20T17:11:14;4.57;;;1.70;;
13234;SDS011;6683;48.506;9.050;2023-12-20T17:14:16;2.60;;;1.30;;
13234;SDS011;6683;48.506;9.050;2023-12-20T17:17:18;1.60;;;1.10;;
13234;SDS011;6683;48.506;9.050;2023-12-20T17:20:20;1.40;;;1.10;;
13234;SDS011;6683;48.506;9.050;2023-12-20T17:23:24;3.33;;;1.10;;
13234;SDS011;6683;48.506;9.050;2023-12-20T17:26:26;2.10;;;1.07;;
13234;SDS011;6683;48.506;9.050;2023-12-20T17:29:28;2.63;;;1.10;;
13234;SDS011;6683;48.506;9.050;2023-12-20T17:32:30;2.97;;;1.07;;
13234;SDS011;6683;48.506;9.050;2023-12-20T17:35:32;5.20;;;1.20;;
13234;SDS011;6683;48.506;9.050;2023-12-20T17:38:35;1.83;;;1.20;;
13234;SDS011;6683;48.506;9.050;2023-12-20T17:41:39;2.13;;;1.20;;
13234;SDS011;6683;48.506;9.050;2023-12-20T17:44:41;2.00;;;1.20;;
13234;SDS011;6683;48.506;9.050;2023-12-20T17:47:43;1.70;;;1.20;;
13234;SDS011;6683;48.506;9.050;2023-12-20T17:50:45;2.10;;;0.80;;
13234;SDS011;6683;48.506;9.050;2023-12-20T17:53:48;1.30;;;1.20;;
13234;SDS011;6683;48.506;9.050;2023-12-20T17:56:51;2.00;;;1.10;;
13234;SDS011;6683;48.506;9.050;2023-12-20T17:59:53;3.93;;;1.20;;
13234;SDS011;6683;48.506;9.050;2023-12-20T18:02:55;1.63;;;1.10;;
13234;SDS011;6683;48.506;9.050;2023-12-20T18:05:57;2.70;;;1.43;;
13234;SDS011;6683;48.506;9.050;2023-12-20T18:09:00;2.77;;;1.60;;
13234;SDS011;6683;48.506;9.050;2023-12-20T18:12:03;2.70;;;1.60;;
13234;SDS011;6683;48.506;9.050;2023-12-20T18:15:07;2.57;;;1.23;;
13234;SDS011;6683;48.506;9.050;2023-12-20T18:18:11;1.67;;;1.03;;
13234;SDS011;6683;48.506;9.050;2023-12-20T18:21:13;3.47;;;1.60;;
13234;SDS011;6683;48.506;9.050;2023-12-20T18:24:17;2.30;;;1.20;;
13234;SDS011;6683;48.506;9.050;2023-12-20T18:27:19;1.60;;;1.03;;
13234;SDS011;6683;48.506;9.050;2023-12-20T18:30:21;3.10;;;1.20;;
13234;SDS011;6683;48.506;9.050;2023-12-20T18:33:24;1.27;;;1.07;;
13234;SDS011;6683;48.506;9.050;2023-12-20T18:36:26;2.33;;;1.20;;
13234;SDS011;6683;48.506;9.050;2023-12-20T18:39:30;1.70;;;1.00;;
13234;SDS011;6683;48.506;9.050;2023-12-20T18:42:32;2.23;;;1.20;;
13234;SDS011;6683;48.506;9.050;2023-12-20T18:45:34;2.73;;;1.10;;